M/V Eren C — 3EDF4 — position and weather

sailwx.info

Track history (hours):
 
Tides and Currents Weather Stations Pressure Air Temp Water Temp Dewpoint Dewpoint Depression Visibility Wind Speed Wind Dir Waves Ship Positions

M/V Eren C

Last reported at 2018-Jun-17 04:12 UTC. Time now 2018-Jun-19 14:25 UTC.
Position N 45°28' E 036°43'.

Length 128 m; draft 4 m.

Type: Ship. MMSI: 371564000.

Date/timePositionNaut miles runAvg speedWind from/ knotsBaromVisibWave heightAir tempDewpointWater temp
2018-Jun-17 04:12N 45°28' E 036°43'2 9.7
2018-Jun-17 04:00N 45°26' E 036°42'5 9.0
2018-Jun-17 03:30N 45°22' E 036°40'3 6.9
2018-Jun-17 03:00N 45°20' E 036°35'5 7.9
2018-Jun-17 02:20N 45°17' E 036°29'4 9.6
2018-Jun-17 01:58N 45°14' E 036°29'3 4.3
2018-Jun-17 01:20N 45°11' E 036°29'0 0.0
2018-Jun-16 19:32N 45°11' E 036°29'0 0.1
2018-Jun-16 19:23N 45°11' E 036°29'0 0.0
2018-Jun-16 18:56N 45°11' E 036°29'0 0.1
2018-Jun-16 17:35N 45°11' E 036°29'0 0.0
2018-Jun-16 17:30N 45°11' E 036°29'0 0.0
2018-Jun-16 16:51N 45°11' E 036°29'0 0.0
2018-Jun-16 16:29N 45°11' E 036°29'0 0.0
2018-Jun-16 16:01N 45°11' E 036°29'0 0.0
2018-Jun-16 15:30N 45°11' E 036°29'1 1.6
2018-Jun-16 15:01N 45°10' E 036°30'510.8
2018-Jun-16 14:31N 45°05' E 036°30'611.2
2018-Jun-16 14:01N 44°59' E 036°31'611.2
2018-Jun-16 13:30N 44°54' E 036°31'17210.9
2018-Jun-15 21:43N 43°16' E 033°15'411.2
2018-Jun-15 21:23N 43°13' E 033°11'2811.1
2018-Jun-15 18:51N 42°58' E 032°39'411.1
2018-Jun-15 18:30N 42°56' E 032°34'611.0
2018-Jun-15 17:54N 42°52' E 032°27'611.0
2018-Jun-15 17:24N 42°49' E 032°21'1811.1
2018-Jun-15 15:47N 42°39' E 032°00'1011.0
2018-Jun-15 14:53N 42°34' E 031°49'610.7
2018-Jun-15 14:20N 42°31' E 031°42'310.7
2018-Jun-15 14:01N 42°28' E 031°39'710.8
2018-Jun-15 13:23N 42°25' E 031°31'410.9
2018-Jun-15 13:00N 42°22' E 031°27'1710.9
2018-Jun-15 11:27N 42°12' E 031°08'1110.9
2018-Jun-15 10:27N 42°06' E 030°56'11110.3
2018-Jun-14 23:37N 40°57' E 028°59'1 5.1
2018-Jun-14 23:26N 40°56' E 028°59'4 0.8
2018-Jun-14 18:46N 40°58' E 028°55'616.8
2018-Jun-14 18:25N 40°52' E 028°53'1329.1
2018-Jun-14 17:59N 40°50' E 028°37'89 7.5
2018-Jun-14 06:08N 40°25' E 026°45'33 9.1
2018-Jun-14 02:29N 40°01' E 026°15'6 8.5
2018-Jun-14 01:44N 39°60' E 026°07'5 8.7
2018-Jun-14 01:13N 39°58' E 026°01'4 9.6
2018-Jun-14 00:45N 39°55' E 025°58'3 9.5
2018-Jun-14 00:28N 39°53' E 025°55'9 9.6
2018-Jun-13 23:30N 39°44' E 025°51'  
2018-Jun-10 19:16N 40°01' E 026°07'138 6.4
2018-Jun-09 21:51N 40°57' E 028°53'2 3.9
2018-Jun-09 21:28N 40°57' E 028°55'13 8.3
2018-Jun-09 19:57N 41°08' E 029°04'4 9.3
2018-Jun-09 19:29N 41°12' E 029°06'10 9.0
2018-Jun-09 18:24N 41°20' E 029°13'7 9.1
2018-Jun-09 17:35N 41°25' E 029°21'1 9.0
2018-Jun-09 17:30N 41°26' E 029°21'4 9.1
2018-Jun-09 17:00N 41°29' E 029°26'4 9.0
2018-Jun-09 16:30N 41°31' E 029°31'5 8.9
2018-Jun-09 15:59N 41°33' E 029°36'9 8.8
2018-Jun-09 15:00N 41°38' E 029°46'5 9.2
2018-Jun-09 14:30N 41°41' E 029°51'5 9.2
2018-Jun-09 14:00N 41°44' E 029°56'5 9.3
2018-Jun-09 13:30N 41°46' E 030°01'5 9.3
2018-Jun-09 13:00N 41°49' E 030°06'5 9.4
2018-Jun-09 12:29N 41°51' E 030°12'5 9.4
2018-Jun-09 12:00N 41°54' E 030°17'5 9.4
2018-Jun-09 11:29N 41°57' E 030°22'5 9.3
2018-Jun-09 11:00N 41°59' E 030°27'5 9.3
2018-Jun-09 10:30N 42°02' E 030°33'13 9.2
2018-Jun-09 09:04N 42°09' E 030°47'1 9.4
2018-Jun-09 08:59N 42°09' E 030°48'5 9.5
2018-Jun-09 08:30N 42°12' E 030°54'6 9.5
2018-Jun-09 07:49N 42°15' E 031°01'3 9.4
2018-Jun-09 07:30N 42°17' E 031°04'18 9.3
2018-Jun-09 05:31N 42°27' E 031°25'0 9.1
2018-Jun-09 05:30N 42°27' E 031°25'5 9.3
2018-Jun-09 04:58N 42°30' E 031°31'4 9.4
2018-Jun-09 04:30N 42°32' E 031°36'5 9.5
2018-Jun-09 04:00N 42°35' E 031°41'5 9.7
2018-Jun-09 03:30N 42°37' E 031°47'5 9.8
2018-Jun-09 03:00N 42°40' E 031°52'5 9.8
2018-Jun-09 02:27N 42°43' E 031°58'5 9.8
2018-Jun-09 01:58N 42°45' E 032°04'5 9.8
2018-Jun-09 01:30N 42°48' E 032°09'510.0
2018-Jun-09 00:59N 42°51' E 032°15'5 9.9
2018-Jun-09 00:30N 42°54' E 032°20'5 9.9
2018-Jun-08 23:59N 42°57' E 032°26'510.1
2018-Jun-08 23:28N 42°60' E 032°32'510.1
2018-Jun-08 23:00N 43°02' E 032°37'213 9.2
2018-Jun-07 23:56N 45°16' E 036°27'4 8.0
2018-Jun-07 23:27N 45°19' E 036°31'4 8.9
2018-Jun-07 23:00N 45°20' E 036°36'4 7.8
2018-Jun-07 22:30N 45°23' E 036°40'3 6.9
2018-Jun-07 22:00N 45°27' E 036°41'3 1.1
2018-Jun-07 19:15N 45°29' E 036°38'0 0.0
2018-Jun-07 18:54N 45°29' E 036°38'0 0.0
2018-Jun-07 16:51N 45°29' E 036°38'0 0.0
2018-Jun-07 16:27N 45°29' E 036°38'0 0.0
2018-Jun-07 14:54N 45°29' E 036°38'0 0.0
2018-Jun-07 14:30N 45°29' E 036°38'0 0.0
2018-Jun-07 14:00N 45°29' E 036°38'0 0.0
2018-Jun-07 12:54N 45°29' E 036°38'0 0.0
2018-Jun-07 12:09N 45°29' E 036°38'0 0.0
2018-Jun-07 12:00N 45°29' E 036°38'0 0.0
2018-Jun-07 11:30N 45°29' E 036°38'0 0.0
2018-Jun-07 11:00N 45°29' E 036°38'0 0.0
2018-Jun-07 09:18N 45°29' E 036°38'0 0.0
2018-Jun-07 08:42N 45°29' E 036°38'0 0.0
2018-Jun-07 08:30N 45°29' E 036°38'0 0.0
2018-Jun-07 08:00N 45°29' E 036°38'0 0.0
2018-Jun-07 07:26N 45°29' E 036°38'0 0.0
2018-Jun-07 06:56N 45°29' E 036°38'0 0.0
2018-Jun-07 06:29N 45°29' E 036°38'0 0.0
2018-Jun-07 05:59N 45°29' E 036°38'0 0.0
2018-Jun-07 05:29N 45°29' E 036°38'0 0.1
2018-Jun-07 04:59N 45°29' E 036°38'  
Track history (hours):
 
Tides and Currents Weather Stations Pressure Air Temp Water Temp Dewpoint Dewpoint Depression Visibility Wind Speed Wind Dir Waves Ship Positions

M/V Eren C

Last reported at 2018-Jun-17 04:12 UTC. Time now 2018-Jun-19 14:25 UTC.
Position N 45°28' E 036°43'.

Length 128 m; draft 4 m.

Type: Ship. MMSI: 371564000.

Date/timePositionNaut miles runAvg speedWind from/ knotsBaromVisibWave heightAir tempDewpointWater temp
2018-Jun-17 04:12N 45°28' E 036°43'2 9.7
2018-Jun-17 04:00N 45°26' E 036°42'5 9.0
2018-Jun-17 03:30N 45°22' E 036°40'3 6.9
2018-Jun-17 03:00N 45°20' E 036°35'5 7.9
2018-Jun-17 02:20N 45°17' E 036°29'4 9.6
2018-Jun-17 01:58N 45°14' E 036°29'3 4.3
2018-Jun-17 01:20N 45°11' E 036°29'0 0.0
2018-Jun-16 19:32N 45°11' E 036°29'0 0.1
2018-Jun-16 19:23N 45°11' E 036°29'0 0.0
2018-Jun-16 18:56N 45°11' E 036°29'0 0.1
2018-Jun-16 17:35N 45°11' E 036°29'0 0.0
2018-Jun-16 17:30N 45°11' E 036°29'0 0.0
2018-Jun-16 16:51N 45°11' E 036°29'0 0.0
2018-Jun-16 16:29N 45°11' E 036°29'0 0.0
2018-Jun-16 16:01N 45°11' E 036°29'0 0.0
2018-Jun-16 15:30N 45°11' E 036°29'1 1.6
2018-Jun-16 15:01N 45°10' E 036°30'510.8
2018-Jun-16 14:31N 45°05' E 036°30'611.2
2018-Jun-16 14:01N 44°59' E 036°31'611.2
2018-Jun-16 13:30N 44°54' E 036°31'17210.9
2018-Jun-15 21:43N 43°16' E 033°15'411.2
2018-Jun-15 21:23N 43°13' E 033°11'2811.1
2018-Jun-15 18:51N 42°58' E 032°39'411.1
2018-Jun-15 18:30N 42°56' E 032°34'611.0
2018-Jun-15 17:54N 42°52' E 032°27'611.0
2018-Jun-15 17:24N 42°49' E 032°21'1811.1
2018-Jun-15 15:47N 42°39' E 032°00'1011.0
2018-Jun-15 14:53N 42°34' E 031°49'610.7
2018-Jun-15 14:20N 42°31' E 031°42'310.7
2018-Jun-15 14:01N 42°28' E 031°39'710.8
2018-Jun-15 13:23N 42°25' E 031°31'410.9
2018-Jun-15 13:00N 42°22' E 031°27'1710.9
2018-Jun-15 11:27N 42°12' E 031°08'1110.9
2018-Jun-15 10:27N 42°06' E 030°56'11110.3
2018-Jun-14 23:37N 40°57' E 028°59'1 5.1
2018-Jun-14 23:26N 40°56' E 028°59'4 0.8
2018-Jun-14 18:46N 40°58' E 028°55'616.8
2018-Jun-14 18:25N 40°52' E 028°53'1329.1
2018-Jun-14 17:59N 40°50' E 028°37'89 7.5
2018-Jun-14 06:08N 40°25' E 026°45'33 9.1
2018-Jun-14 02:29N 40°01' E 026°15'6 8.5
2018-Jun-14 01:44N 39°60' E 026°07'5 8.7
2018-Jun-14 01:13N 39°58' E 026°01'4 9.6
2018-Jun-14 00:45N 39°55' E 025°58'3 9.5
2018-Jun-14 00:28N 39°53' E 025°55'9 9.6
2018-Jun-13 23:30N 39°44' E 025°51'  
2018-Jun-10 19:16N 40°01' E 026°07'138 6.4
2018-Jun-09 21:51N 40°57' E 028°53'2 3.9
2018-Jun-09 21:28N 40°57' E 028°55'13 8.3
2018-Jun-09 19:57N 41°08' E 029°04'4 9.3
2018-Jun-09 19:29N 41°12' E 029°06'10 9.0
2018-Jun-09 18:24N 41°20' E 029°13'7 9.1
2018-Jun-09 17:35N 41°25' E 029°21'1 9.0
2018-Jun-09 17:30N 41°26' E 029°21'4 9.1
2018-Jun-09 17:00N 41°29' E 029°26'4 9.0
2018-Jun-09 16:30N 41°31' E 029°31'5 8.9
2018-Jun-09 15:59N 41°33' E 029°36'9 8.8
2018-Jun-09 15:00N 41°38' E 029°46'5 9.2
2018-Jun-09 14:30N 41°41' E 029°51'5 9.2
2018-Jun-09 14:00N 41°44' E 029°56'5 9.3
2018-Jun-09 13:30N 41°46' E 030°01'5 9.3
2018-Jun-09 13:00N 41°49' E 030°06'5 9.4
2018-Jun-09 12:29N 41°51' E 030°12'5 9.4
2018-Jun-09 12:00N 41°54' E 030°17'5 9.4
2018-Jun-09 11:29N 41°57' E 030°22'5 9.3
2018-Jun-09 11:00N 41°59' E 030°27'5 9.3
2018-Jun-09 10:30N 42°02' E 030°33'13 9.2
2018-Jun-09 09:04N 42°09' E 030°47'1 9.4
2018-Jun-09 08:59N 42°09' E 030°48'5 9.5
2018-Jun-09 08:30N 42°12' E 030°54'6 9.5
2018-Jun-09 07:49N 42°15' E 031°01'3 9.4
2018-Jun-09 07:30N 42°17' E 031°04'18 9.3
2018-Jun-09 05:31N 42°27' E 031°25'0 9.1
2018-Jun-09 05:30N 42°27' E 031°25'5 9.3
2018-Jun-09 04:58N 42°30' E 031°31'4 9.4
2018-Jun-09 04:30N 42°32' E 031°36'5 9.5
2018-Jun-09 04:00N 42°35' E 031°41'5 9.7
2018-Jun-09 03:30N 42°37' E 031°47'5 9.8
2018-Jun-09 03:00N 42°40' E 031°52'5 9.8
2018-Jun-09 02:27N 42°43' E 031°58'5 9.8
2018-Jun-09 01:58N 42°45' E 032°04'5 9.8
2018-Jun-09 01:30N 42°48' E 032°09'510.0
2018-Jun-09 00:59N 42°51' E 032°15'5 9.9
2018-Jun-09 00:30N 42°54' E 032°20'5 9.9
2018-Jun-08 23:59N 42°57' E 032°26'510.1
2018-Jun-08 23:28N 42°60' E 032°32'510.1
2018-Jun-08 23:00N 43°02' E 032°37'213 9.2
2018-Jun-07 23:56N 45°16' E 036°27'4 8.0
2018-Jun-07 23:27N 45°19' E 036°31'4 8.9
2018-Jun-07 23:00N 45°20' E 036°36'4 7.8
2018-Jun-07 22:30N 45°23' E 036°40'3 6.9
2018-Jun-07 22:00N 45°27' E 036°41'3 1.1
2018-Jun-07 19:15N 45°29' E 036°38'0 0.0
2018-Jun-07 18:54N 45°29' E 036°38'0 0.0
2018-Jun-07 16:51N 45°29' E 036°38'0 0.0
2018-Jun-07 16:27N 45°29' E 036°38'0 0.0
2018-Jun-07 14:54N 45°29' E 036°38'0 0.0
2018-Jun-07 14:30N 45°29' E 036°38'0 0.0
2018-Jun-07 14:00N 45°29' E 036°38'0 0.0
2018-Jun-07 12:54N 45°29' E 036°38'0 0.0
2018-Jun-07 12:09N 45°29' E 036°38'0 0.0
2018-Jun-07 12:00N 45°29' E 036°38'0 0.0
2018-Jun-07 11:30N 45°29' E 036°38'0 0.0
2018-Jun-07 11:00N 45°29' E 036°38'0 0.0
2018-Jun-07 09:18N 45°29' E 036°38'0 0.0
2018-Jun-07 08:42N 45°29' E 036°38'0 0.0
2018-Jun-07 08:30N 45°29' E 036°38'0 0.0
2018-Jun-07 08:00N 45°29' E 036°38'0 0.0
2018-Jun-07 07:26N 45°29' E 036°38'0 0.0
2018-Jun-07 06:56N 45°29' E 036°38'0 0.0
2018-Jun-07 06:29N 45°29' E 036°38'0 0.0
2018-Jun-07 05:59N 45°29' E 036°38'0 0.0
2018-Jun-07 05:29N 45°29' E 036°38'0 0.1
2018-Jun-07 04:59N 45°29' E 036°38'  

Dump ship's entire track history